Bogalusa, Louisiana
Current Conditions -  °F | °C
As of 6:53 PM on Saturday 22 Nov 2014 (Local Time) from KASD Reporting Station
Overcast Overcast  
Wind Chill: 65°   Ceiling: 1200
Heat Index: 65°   Visibility: 10mi
Dew Point: 60°   Wind: 7mph
Humidity: 84%   Direction: 100°E
Pressure: 30.02"   Gusts: NA
Location:  30.79°N, 89.86°W
Report Text: KASD 230053Z AUTO 10006KT 10SM BKN012 OVC018 18/16 A3002 RMK AO2 SLP165 T01830156
Loading
Personal Weather Stations






























Interactive Weather Map New forecast layout! Learn more

10-Day Weather Forecast

Advertisements
Track Severe Weather on mobile